DAUA

Details ICAO DAUA (AZR)
Name TOUAT CHEIKH SIDI MOHAMED BELKEBIR
Region Algeria
Timezone Africa/Algiers (UTC+1.0)
Plans Departing 36
Arriving 25
Stats Elevation 919 ft / 280 m (AMSL)
Location 27.837639° -0.186389°
Runways 1
Magnetic Variation 0.088° W
Sunrise 2017-12-12 06:43:45 UTC / 2017-12-12 07:43:45 Local
Sunset 2017-12-12 17:08:04 UTC / 2017-12-12 18:08:04 Local
Advertisement - Login to hide

Runways

ID Width Length Bearing (true) Bearing (mag) Surface Threshold Offset Overrun Length
04 148 ft / 45 m 9,857 ft / 3,005 m 39.53° 39.62° Asphalt 0 ft / 0 m 0 ft / 0 m
22 148 ft / 45 m 9,857 ft / 3,005 m 219.54° 219.63° Asphalt 0 ft / 0 m 0 ft / 0 m

Map

Weather


0- 5 10 15 20 25 30 35+ Temperature / ° C

Clouds and Precipitation
Forecast for 2017-12-12 00:00 UTC. Updated an hour ago

Ground ~20,000 ft ~40,000 ft Winds

METAR

DAUA 120000Z 18014KT CAVOK 13/M01 Q1012

TAF

TAF DAUA 112300Z 1200/1224 18012KT CAVOK PROB30 TEMPO 1211/1217 FEW033CB

Frequencies

Tower 119.70 MHz ADRAR TWR
Tower 118.30 MHz ADRAR TWR
Warning: Do not use this data for real-world aviation or navigation. No guarantee of current accuracy is given.